首页
METAR-TAF:

METAR-TAF

机场 :

Orangeburg Municipal Airport

Orangeburg, 南卡罗来纳州, 美国

纬度: 33-27-50N, 经度: 080-51-13W, 海拔: 60米

当前天气观测

该预报发布于1小时和9分钟前的19:53 UTC
风速7节,风向
温度 16°C
湿度 51%
气压 1013 hPa
天空无云

METAR: KOGB 171953Z AUTO 36007KT CLR 16/06 A2992 RMK AO2 SLP131 T01610056 $

时间: 16:02 (21:02 UTC)

预报

该预报发布于32分钟前的20:30 UTC
预报有效从17日的 21点(UTC)到 18日的 18点(UTC)
风速8节,风向
能見度: 10公里
少量云层高于15000英尺
从 18日的 0900点(UTC)
风速5节,风向西北
能見度: 10公里
散云层高于3000英尺
多云层高于6000英尺
从 18日的 1500点(UTC)
风速5节,风向多变
能見度: 10公里
散云层高于2500英尺
多云层高于5000英尺

TAF: KOGB 172030Z 1721/1818 36008KT P6SM FEW150 FM180900 32005KT P6SM SCT030 BKN060 FM181500 VRB05KT P6SM SCT025 BKN050

超过4000个机场的气象观测和天气预报(METAR&TAF报告)。

可查询的气象台以黄色和红色小点在地图上表示。

将鼠标移到小点上方,可查看气象台名称。

然后点击查看天气观测和预报。

如需切换地图:点击带黑十字的绿色按钮放大地图;点击带横线的绿色按钮缩小地图;或者点击绿色箭头查看邻近地区的地图。


METAR-TAF: